createdAt,value
2022-10-28T00:01:14.583Z,16.87
2022-10-28T00:03:46.502Z,16.90
2022-10-28T00:06:16.863Z,16.90
2022-10-28T00:08:43.658Z,16.91
2022-10-28T00:11:13.245Z,16.94
2022-10-28T00:13:40.901Z,16.94
2022-10-28T00:16:18.842Z,16.94
2022-10-28T00:18:46.296Z,16.95
2022-10-28T00:21:15.632Z,16.95
2022-10-28T00:23:42.566Z,16.95
2022-10-28T00:26:14.730Z,16.95
2022-10-28T00:28:46.766Z,16.96
2022-10-28T00:31:15.314Z,16.92
2022-10-28T00:33:42.062Z,16.89
2022-10-28T00:36:10.951Z,16.85
2022-10-28T00:38:37.600Z,16.81
2022-10-28T00:41:04.547Z,16.87
2022-10-28T00:43:44.562Z,16.82
2022-10-28T00:46:24.447Z,16.81
2022-10-28T00:48:57.327Z,16.78
2022-10-28T00:51:25.395Z,16.81
2022-10-28T00:53:54.173Z,16.81
2022-10-28T00:56:22.275Z,16.86
2022-10-28T00:58:50.132Z,16.85
2022-10-28T01:01:16.578Z,16.81
2022-10-28T01:03:42.994Z,16.80
2022-10-28T01:06:10.563Z,16.75
2022-10-28T01:08:37.028Z,16.77
2022-10-28T01:11:31.482Z,16.74
2022-10-28T01:14:25.896Z,16.73
2022-10-28T01:17:00.147Z,16.67
2022-10-28T01:19:55.853Z,16.64
2022-10-28T01:22:27.402Z,16.60
2022-10-28T01:25:15.651Z,16.62
2022-10-28T01:27:55.681Z,16.66
2022-10-28T01:30:25.737Z,16.65
2022-10-28T01:33:08.411Z,16.60
2022-10-28T01:35:55.101Z,16.57
2022-10-28T01:38:34.887Z,16.56
2022-10-28T01:41:01.234Z,16.61
2022-10-28T01:43:50.266Z,16.71
2022-10-28T01:46:24.878Z,16.65
2022-10-28T01:48:56.671Z,16.69
2022-10-28T01:51:29.888Z,16.75
2022-10-28T01:53:59.853Z,16.75
2022-10-28T01:56:32.985Z,16.72
2022-10-28T01:59:01.659Z,16.82
2022-10-28T02:01:30.858Z,16.77
2022-10-28T02:03:57.773Z,16.71
2022-10-28T02:06:28.531Z,16.73
2022-10-28T02:09:14.689Z,16.74
2022-10-28T02:12:12.174Z,16.72
2022-10-28T02:14:53.635Z,16.76
2022-10-28T02:17:19.989Z,16.74
2022-10-28T02:20:08.350Z,16.70
2022-10-28T02:22:46.147Z,16.65
2022-10-28T02:25:23.086Z,16.64
2022-10-28T02:30:44.890Z,16.52
2022-10-28T02:33:17.510Z,16.43
2022-10-28T02:35:49.642Z,16.43
2022-10-28T02:38:20.873Z,16.45
2022-10-28T02:43:27.907Z,16.59
2022-10-28T02:45:59.178Z,16.51
2022-10-28T02:48:33.887Z,16.54
2022-10-28T02:51:13.819Z,16.52
2022-10-28T02:54:02.258Z,16.50
2022-10-28T02:56:31.653Z,16.55
2022-10-28T02:58:58.194Z,16.64
2022-10-28T03:01:24.697Z,16.54
2022-10-28T03:03:51.247Z,16.48
2022-10-28T03:06:18.129Z,16.47
2022-10-28T03:08:44.583Z,16.39
2022-10-28T03:11:10.980Z,16.32
2022-10-28T03:13:37.393Z,16.27
2022-10-28T03:16:03.989Z,16.26
2022-10-28T03:18:30.451Z,16.26
2022-10-28T03:20:59.004Z,16.33
2022-10-28T03:23:25.679Z,16.42
2022-10-28T03:25:52.135Z,16.42
2022-10-28T03:28:18.541Z,16.37
2022-10-28T03:30:44.964Z,16.39
2022-10-28T03:33:11.443Z,16.42
2022-10-28T03:35:37.897Z,16.42
2022-10-28T03:38:04.402Z,16.43
2022-10-28T03:40:31.208Z,16.40
2022-10-28T03:42:57.580Z,16.42
2022-10-28T03:45:24.112Z,16.46
2022-10-28T03:47:50.687Z,16.45
2022-10-28T03:50:17.325Z,16.39
2022-10-28T03:52:44.864Z,16.40
2022-10-28T03:55:11.311Z,16.35
2022-10-28T03:57:37.716Z,16.41
2022-10-28T04:00:05.060Z,16.37
2022-10-28T04:02:31.500Z,16.35
2022-10-28T04:04:57.955Z,16.31
2022-10-28T04:07:25.469Z,16.29
2022-10-28T04:09:51.945Z,16.27
2022-10-28T04:12:18.526Z,16.26
2022-10-28T04:14:44.966Z,16.32
2022-10-28T04:17:11.466Z,16.33
2022-10-28T04:19:37.991Z,16.28
2022-10-28T04:22:04.468Z,16.33
2022-10-28T04:24:30.847Z,16.32
2022-10-28T04:26:57.265Z,16.29
2022-10-28T04:29:23.706Z,16.34
2022-10-28T04:31:52.227Z,16.39
2022-10-28T04:34:18.951Z,16.30
2022-10-28T04:36:45.409Z,16.24
2022-10-28T04:39:11.822Z,16.27
2022-10-28T04:41:38.301Z,16.37
2022-10-28T04:44:04.812Z,16.37
2022-10-28T04:46:31.198Z,16.29
2022-10-28T04:48:57.616Z,16.27
2022-10-28T04:51:24.127Z,16.25
2022-10-28T04:53:50.522Z,16.24
2022-10-28T04:56:16.988Z,16.19
2022-10-28T04:58:43.408Z,16.14
2022-10-28T05:01:10.778Z,16.19
2022-10-28T05:03:37.338Z,16.15
2022-10-28T05:06:04.033Z,16.10
2022-10-28T05:08:30.534Z,16.01
2022-10-28T05:10:56.916Z,15.96
2022-10-28T05:13:23.335Z,15.95
2022-10-28T05:15:50.214Z,15.95
2022-10-28T05:18:17.033Z,15.93
2022-10-28T05:20:44.020Z,15.94
2022-10-28T05:23:10.945Z,15.96
2022-10-28T05:25:37.385Z,15.97
2022-10-28T05:28:03.994Z,16.01
2022-10-28T05:30:30.446Z,16.02
2022-10-28T05:33:03.660Z,16.04
2022-10-28T05:35:33.458Z,16.10
2022-10-28T05:38:00.026Z,16.09
2022-10-28T05:40:26.485Z,16.15
2022-10-28T05:42:53.309Z,16.10
2022-10-28T05:45:19.943Z,16.09
2022-10-28T05:47:48.133Z,16.08
2022-10-28T05:50:16.925Z,16.07
2022-10-28T05:52:51.526Z,16.09
2022-10-28T05:55:19.799Z,16.14
2022-10-28T05:57:47.602Z,16.20
2022-10-28T06:00:15.145Z,16.18
2022-10-28T06:02:42.156Z,16.18
2022-10-28T06:05:09.699Z,16.15
2022-10-28T06:07:37.544Z,16.22
2022-10-28T06:10:05.849Z,16.21
2022-10-28T06:12:31.134Z,16.19
2022-10-28T06:14:57.884Z,16.19
2022-10-28T06:17:24.426Z,16.21
2022-10-28T06:19:51.070Z,16.19
2022-10-28T06:22:17.517Z,16.17
2022-10-28T06:24:44.100Z,16.19
2022-10-28T06:27:10.834Z,16.24
2022-10-28T06:29:37.258Z,16.24
2022-10-28T06:32:04.151Z,16.28
2022-10-28T06:34:30.567Z,16.30
2022-10-28T06:36:57.083Z,16.33
2022-10-28T06:39:23.615Z,16.40
2022-10-28T06:41:50.045Z,16.50
2022-10-28T06:44:16.549Z,16.48
2022-10-28T06:46:44.493Z,16.43
2022-10-28T06:49:10.965Z,16.34
2022-10-28T06:51:37.384Z,16.34
2022-10-28T06:54:03.900Z,16.35
2022-10-28T06:56:30.423Z,16.37
2022-10-28T06:58:56.875Z,16.37
2022-10-28T07:01:23.798Z,16.31
2022-10-28T07:03:50.362Z,16.32
2022-10-28T07:06:17.672Z,16.33
2022-10-28T07:08:44.329Z,16.37
2022-10-28T07:11:10.739Z,16.44
2022-10-28T07:13:37.178Z,16.45
2022-10-28T07:16:05.171Z,16.51
2022-10-28T07:18:31.722Z,16.53
2022-10-28T07:20:59.636Z,16.55
2022-10-28T07:23:26.069Z,16.49
2022-10-28T07:25:56.088Z,16.51
2022-10-28T07:28:24.633Z,16.56
2022-10-28T07:30:51.157Z,16.56
2022-10-28T07:33:17.794Z,16.58
2022-10-28T07:35:44.362Z,16.66
2022-10-28T07:38:11.270Z,16.81
2022-10-28T07:40:38.009Z,16.84
2022-10-28T07:43:04.543Z,16.95
2022-10-28T07:45:31.031Z,17.06
2022-10-28T07:47:57.492Z,17.06
2022-10-28T07:50:23.926Z,17.07
2022-10-28T07:52:50.487Z,17.12
2022-10-28T07:55:17.006Z,17.12
2022-10-28T07:57:43.423Z,17.09
2022-10-28T08:00:10.742Z,17.10
2022-10-28T08:02:37.796Z,17.10
2022-10-28T08:05:04.769Z,17.07
2022-10-28T08:07:34.781Z,17.08
2022-10-28T08:10:04.746Z,17.08
2022-10-28T08:12:31.161Z,17.13
2022-10-28T08:14:57.614Z,17.15
2022-10-28T08:17:24.072Z,17.12
2022-10-28T08:19:50.492Z,17.22
2022-10-28T08:22:16.985Z,17.29
2022-10-28T08:24:43.419Z,17.29
2022-10-28T08:27:09.933Z,17.35
2022-10-28T08:29:36.416Z,17.36
2022-10-28T08:32:02.870Z,17.39
2022-10-28T08:34:30.889Z,17.37
2022-10-28T08:36:57.450Z,17.44
2022-10-28T08:39:23.976Z,17.56
2022-10-28T08:41:58.879Z,17.57
2022-10-28T08:44:33.936Z,17.65
2022-10-28T08:47:25.424Z,17.64
2022-10-28T08:49:56.649Z,17.58
2022-10-28T08:52:44.142Z,17.50
2022-10-28T08:55:21.064Z,17.56
2022-10-28T08:57:55.325Z,17.68
2022-10-28T09:00:29.154Z,17.64
2022-10-28T09:03:05.576Z,17.77
2022-10-28T09:05:32.174Z,17.76
2022-10-28T09:07:59.107Z,17.87
2022-10-28T09:10:44.999Z,17.77
2022-10-28T09:13:17.555Z,17.77
2022-10-28T09:16:05.060Z,17.85
2022-10-28T09:18:43.750Z,17.93
2022-10-28T09:21:19.237Z,17.99
2022-10-28T09:23:59.235Z,18.01
2022-10-28T09:26:47.766Z,18.16
2022-10-28T09:29:20.174Z,18.20
2022-10-28T09:32:10.970Z,18.23
2022-10-28T09:34:45.371Z,18.35
2022-10-28T09:37:27.159Z,18.40
2022-10-28T09:40:14.557Z,18.47
2022-10-28T09:42:52.083Z,18.44
2022-10-28T09:45:27.745Z,18.58
2022-10-28T09:48:00.446Z,18.63
2022-10-28T09:50:30.651Z,18.64
2022-10-28T09:53:12.742Z,18.66
2022-10-28T09:55:39.485Z,18.74
2022-10-28T09:58:06.152Z,18.95
2022-10-28T10:00:32.862Z,18.86
2022-10-28T10:02:59.483Z,18.90
2022-10-28T10:05:27.034Z,18.99
2022-10-28T10:08:03.180Z,19.25
2022-10-28T10:10:44.674Z,19.25
2022-10-28T10:13:13.212Z,19.15
2022-10-28T10:15:51.056Z,19.09
2022-10-28T10:18:27.047Z,19.29
2022-10-28T10:21:01.466Z,19.34
2022-10-28T10:23:36.920Z,19.25
2022-10-28T10:26:13.485Z,19.17
2022-10-28T10:28:45.468Z,19.28
2022-10-28T10:31:27.245Z,19.32
2022-10-28T10:33:56.631Z,19.29
2022-10-28T10:36:28.983Z,19.31
2022-10-28T10:38:57.221Z,19.48
2022-10-28T10:41:43.519Z,19.41
2022-10-28T10:44:22.301Z,19.41
2022-10-28T10:46:54.999Z,19.45
2022-10-28T10:49:21.441Z,19.52
2022-10-28T10:51:52.449Z,19.70
2022-10-28T10:54:19.649Z,19.67
2022-10-28T10:56:46.508Z,19.61
2022-10-28T10:59:26.065Z,19.55
2022-10-28T11:01:54.292Z,19.72
2022-10-28T11:04:23.270Z,19.67
2022-10-28T11:06:52.930Z,19.78
2022-10-28T11:09:42.195Z,19.89
2022-10-28T11:12:51.676Z,19.97
2022-10-28T11:15:24.555Z,20.03
2022-10-28T11:17:57.187Z,20.02
2022-10-28T11:20:31.016Z,20.13
2022-10-28T11:23:00.180Z,20.17
2022-10-28T11:25:40.154Z,20.29
2022-10-28T11:28:27.372Z,20.35
2022-10-28T11:31:09.130Z,20.28
2022-10-28T11:33:52.772Z,20.30
2022-10-28T11:36:21.993Z,20.32
2022-10-28T11:39:14.457Z,20.39
2022-10-28T11:42:21.965Z,20.50
2022-10-28T11:45:24.834Z,20.65
2022-10-28T11:48:05.525Z,20.50
2022-10-28T11:51:07.446Z,20.48
2022-10-28T11:53:52.401Z,20.45
2022-10-28T11:56:27.671Z,20.60
2022-10-28T11:59:14.317Z,20.60
2022-10-28T12:02:16.335Z,20.71
2022-10-28T12:05:02.704Z,20.67
2022-10-28T12:08:03.183Z,20.56
2022-10-28T12:10:51.337Z,20.49
2022-10-28T12:13:25.535Z,20.54
2022-10-28T12:15:56.843Z,20.76
2022-10-28T12:18:28.381Z,20.75
2022-10-28T12:20:58.868Z,21.00
2022-10-28T12:23:27.212Z,20.98
2022-10-28T12:25:57.450Z,21.09
2022-10-28T12:28:55.477Z,21.05
2022-10-28T12:31:50.347Z,21.00
2022-10-28T12:34:24.843Z,21.09
2022-10-28T12:37:02.402Z,21.08
2022-10-28T12:39:37.280Z,21.02
2022-10-28T12:42:16.738Z,21.04
2022-10-28T12:44:44.347Z,21.12
2022-10-28T12:47:17.692Z,20.99
2022-10-28T12:49:56.159Z,20.86
2022-10-28T12:52:28.045Z,20.82
2022-10-28T12:55:03.118Z,20.76
2022-10-28T12:57:34.698Z,20.88
2022-10-28T13:00:15.926Z,20.90
2022-10-28T13:03:03.517Z,21.13
2022-10-28T13:05:39.960Z,21.41
2022-10-28T13:08:27.702Z,21.57
2022-10-28T13:11:20.366Z,21.47
2022-10-28T13:13:46.841Z,21.50
2022-10-28T13:16:35.309Z,21.56
2022-10-28T13:19:28.676Z,21.62
2022-10-28T13:22:13.398Z,21.52
2022-10-28T13:25:01.171Z,21.35
2022-10-28T13:27:28.154Z,21.22
2022-10-28T13:29:59.822Z,21.18
2022-10-28T13:32:39.632Z,21.18
2022-10-28T13:35:24.027Z,21.10
2022-10-28T13:37:53.066Z,21.03
2022-10-28T13:40:31.804Z,21.01
2022-10-28T13:43:00.003Z,21.09
2022-10-28T13:45:52.078Z,21.12
2022-10-28T13:48:44.945Z,21.07
2022-10-28T13:51:11.344Z,20.99
2022-10-28T13:54:00.125Z,21.03
2022-10-28T13:56:35.558Z,20.91
2022-10-28T13:59:12.407Z,20.88
2022-10-28T14:02:01.298Z,20.74
2022-10-28T14:04:28.563Z,20.65
2022-10-28T14:07:05.621Z,20.59
2022-10-28T14:09:35.522Z,20.53
2022-10-28T14:12:14.924Z,20.45
2022-10-28T14:15:08.171Z,20.35
2022-10-28T14:17:39.237Z,20.28
2022-10-28T14:20:29.588Z,20.19
2022-10-28T14:22:56.451Z,20.17
2022-10-28T14:25:41.478Z,20.12
2022-10-28T14:28:29.697Z,20.08
2022-10-28T14:31:08.480Z,20.00
2022-10-28T14:33:36.351Z,19.94
2022-10-28T14:36:20.880Z,19.91
2022-10-28T14:38:53.471Z,19.87
2022-10-28T14:41:38.845Z,19.84
2022-10-28T14:44:36.345Z,19.81
2022-10-28T14:47:14.462Z,19.77
2022-10-28T14:49:44.781Z,19.74
2022-10-28T14:52:17.838Z,19.71
2022-10-28T14:54:57.104Z,19.74
2022-10-28T14:57:34.187Z,19.75
2022-10-28T15:00:05.269Z,19.76
2022-10-28T15:02:34.605Z,19.75
2022-10-28T15:05:13.711Z,19.71
2022-10-28T15:07:41.874Z,19.72
2022-10-28T15:10:27.179Z,19.68
2022-10-28T15:12:55.933Z,19.77
2022-10-28T15:15:26.197Z,19.81
2022-10-28T15:17:53.129Z,19.88
2022-10-28T15:20:26.034Z,20.20
2022-10-28T15:22:54.717Z,20.06
2022-10-28T15:25:22.523Z,19.91
2022-10-28T15:27:53.461Z,19.75
2022-10-28T15:30:25.940Z,19.76
2022-10-28T15:32:54.144Z,19.79
2022-10-28T15:35:26.942Z,20.07
2022-10-28T15:37:54.978Z,19.94
2022-10-28T15:40:28.310Z,19.93
2022-10-28T15:42:59.235Z,20.09
2022-10-28T15:45:28.435Z,20.21
2022-10-28T15:47:56.869Z,20.16
2022-10-28T15:50:32.413Z,20.11
2022-10-28T15:53:11.951Z,20.13
2022-10-28T15:56:07.133Z,20.23
2022-10-28T15:58:39.630Z,20.20
2022-10-28T16:01:10.822Z,20.22
2022-10-28T16:03:40.060Z,19.99
2022-10-28T16:06:19.635Z,19.99
2022-10-28T16:08:46.183Z,19.92
2022-10-28T16:11:20.071Z,19.79
2022-10-28T16:13:49.032Z,19.70
2022-10-28T16:16:25.512Z,19.70
2022-10-28T16:19:00.281Z,19.56
2022-10-28T16:21:27.041Z,19.46
2022-10-28T16:23:59.112Z,19.38
2022-10-28T16:26:26.637Z,19.31
2022-10-28T16:28:53.259Z,19.24
2022-10-28T16:31:22.134Z,19.20
2022-10-28T16:33:48.867Z,19.15
2022-10-28T16:36:15.525Z,19.10
2022-10-28T16:38:41.969Z,19.01
2022-10-28T16:41:16.095Z,18.93
2022-10-28T16:43:43.344Z,18.85
2022-10-28T16:46:15.140Z,18.75
2022-10-28T16:48:42.163Z,18.68
2022-10-28T16:51:15.169Z,18.61
2022-10-28T16:53:46.846Z,18.58
2022-10-28T16:56:15.579Z,18.55
2022-10-28T16:58:42.947Z,18.49
2022-10-28T17:01:11.076Z,18.46
2022-10-28T17:03:37.631Z,18.39
2022-10-28T17:06:04.341Z,18.35
2022-10-28T17:08:56.707Z,18.33
2022-10-28T17:11:17.305Z,18.25
2022-10-28T17:13:43.842Z,18.25
2022-10-28T17:16:10.265Z,18.22
2022-10-28T17:18:36.756Z,18.15
2022-10-28T17:21:03.564Z,18.12
2022-10-28T17:23:30.258Z,18.07
2022-10-28T17:25:58.570Z,18.01
2022-10-28T17:28:25.079Z,18.01
2022-10-28T17:30:51.520Z,17.98
2022-10-28T17:33:18.085Z,17.96
2022-10-28T17:35:44.493Z,17.86
2022-10-28T17:38:10.950Z,17.84
2022-10-28T17:40:37.350Z,17.82
2022-10-28T17:43:03.814Z,17.79
2022-10-28T17:45:30.245Z,17.75
2022-10-28T17:47:56.649Z,17.64
2022-10-28T17:50:23.075Z,17.65
2022-10-28T17:52:49.478Z,17.60
2022-10-28T17:55:15.933Z,17.58
2022-10-28T17:57:44.498Z,17.57
2022-10-28T18:00:11.416Z,17.50
2022-10-28T18:02:39.980Z,17.44
2022-10-28T18:05:06.930Z,17.40
2022-10-28T18:07:33.439Z,17.37
2022-10-28T18:09:59.900Z,17.38
2022-10-28T18:12:26.322Z,17.29
2022-10-28T18:14:52.813Z,17.21
2022-10-28T18:17:19.288Z,17.22
2022-10-28T18:19:45.727Z,17.23
2022-10-28T18:22:12.335Z,17.14
2022-10-28T18:24:38.864Z,17.14
2022-10-28T18:27:05.308Z,17.16
2022-10-28T18:29:31.846Z,17.16
2022-10-28T18:32:00.614Z,17.09
2022-10-28T18:34:27.562Z,17.11
2022-10-28T18:36:54.112Z,17.02
2022-10-28T18:39:20.565Z,17.02
2022-10-28T18:41:47.034Z,16.97
2022-10-28T18:44:16.875Z,16.92
2022-10-28T18:46:45.297Z,16.87
2022-10-28T18:49:12.437Z,16.86
2022-10-28T18:51:39.035Z,16.76
2022-10-28T18:54:05.574Z,16.75
2022-10-28T18:56:33.995Z,16.74
2022-10-28T18:59:03.402Z,16.69
2022-10-28T19:01:31.700Z,16.69
2022-10-28T19:04:03.019Z,16.63
2022-10-28T19:06:32.544Z,16.64
2022-10-28T19:09:01.918Z,16.52
2022-10-28T19:11:31.114Z,16.49
2022-10-28T19:13:59.512Z,16.51
2022-10-28T19:16:27.012Z,16.49
2022-10-28T19:18:57.500Z,16.43
2022-10-28T19:21:24.931Z,16.30
2022-10-28T19:23:52.130Z,16.28
2022-10-28T19:26:19.105Z,16.31
2022-10-28T19:28:47.843Z,16.29
2022-10-28T19:31:16.962Z,16.34
2022-10-28T19:33:45.201Z,16.36
2022-10-28T19:36:18.507Z,16.34
2022-10-28T19:38:46.347Z,16.36
2022-10-28T19:41:15.365Z,16.36
2022-10-28T19:43:42.300Z,16.42
2022-10-28T19:46:18.173Z,16.44
2022-10-28T19:48:47.019Z,16.50
2022-10-28T19:51:16.369Z,16.47
2022-10-28T19:53:50.638Z,16.40
2022-10-28T19:56:19.350Z,16.31
2022-10-28T19:58:47.841Z,16.32
2022-10-28T20:01:14.524Z,16.32
2022-10-28T20:03:45.065Z,16.28
2022-10-28T20:06:15.300Z,16.26
2022-10-28T20:08:44.218Z,16.29
2022-10-28T20:11:13.493Z,16.30
2022-10-28T20:13:40.079Z,16.34
2022-10-28T20:16:11.761Z,16.34
2022-10-28T20:18:38.713Z,16.37
2022-10-28T20:21:13.598Z,16.31
2022-10-28T20:23:40.716Z,16.19
2022-10-28T20:26:08.406Z,16.20
2022-10-28T20:28:35.235Z,16.15
2022-10-28T20:31:04.401Z,16.16
2022-10-28T20:33:31.394Z,16.20
2022-10-28T20:35:58.717Z,16.21
2022-10-28T20:38:26.012Z,16.16
2022-10-28T20:40:57.994Z,16.14
2022-10-28T20:43:27.818Z,16.13
2022-10-28T20:45:56.428Z,16.15
2022-10-28T20:48:22.963Z,16.15
2022-10-28T20:50:54.667Z,16.16
2022-10-28T20:53:23.327Z,16.09
2022-10-28T20:55:51.556Z,16.10
2022-10-28T20:58:18.759Z,16.06
2022-10-28T21:00:45.504Z,16.07
2022-10-28T21:03:12.205Z,16.03
2022-10-28T21:05:40.358Z,16.06
2022-10-28T21:08:06.823Z,16.09
2022-10-28T21:10:34.516Z,16.13
2022-10-28T21:13:01.387Z,16.09
2022-10-28T21:15:28.201Z,16.06
2022-10-28T21:17:55.214Z,16.03
2022-10-28T21:20:21.906Z,16.03
2022-10-28T21:22:48.426Z,16.01
2022-10-28T21:25:15.102Z,15.97
2022-10-28T21:27:41.795Z,15.96
2022-10-28T21:30:09.183Z,15.95
2022-10-28T21:32:37.221Z,15.91
2022-10-28T21:35:05.730Z,15.86
2022-10-28T21:37:33.185Z,15.85
2022-10-28T21:40:01.070Z,15.82
2022-10-28T21:42:28.033Z,15.83
2022-10-28T21:44:54.520Z,15.81
2022-10-28T21:49:48.076Z,15.79
2022-10-28T21:52:14.522Z,15.81
2022-10-28T21:54:42.325Z,15.76
2022-10-28T21:57:08.859Z,15.77
2022-10-28T21:59:35.250Z,15.74
2022-10-28T22:02:01.829Z,15.70
2022-10-28T22:04:28.353Z,15.64
2022-10-28T22:06:54.816Z,15.68
2022-10-28T22:09:21.270Z,15.75
2022-10-28T22:11:47.710Z,15.80
2022-10-28T22:14:14.174Z,15.82
2022-10-28T22:16:40.563Z,15.86
2022-10-28T22:19:08.693Z,15.78
2022-10-28T22:21:40.953Z,15.72
2022-10-28T22:24:07.818Z,15.72
2022-10-28T22:26:34.344Z,15.70
2022-10-28T22:29:01.066Z,15.69
2022-10-28T22:31:31.330Z,15.70
2022-10-28T22:33:58.215Z,15.71
2022-10-28T22:36:27.122Z,15.64
2022-10-28T22:38:53.933Z,15.61
2022-10-28T22:41:25.996Z,15.61
2022-10-28T22:43:57.758Z,15.54
2022-10-28T22:46:26.212Z,15.55
2022-10-28T22:48:53.714Z,15.53
2022-10-28T22:51:20.647Z,15.54
2022-10-28T22:53:47.739Z,15.51
2022-10-28T22:56:22.842Z,15.43
2022-10-28T22:58:57.336Z,15.47
2022-10-28T23:01:25.097Z,15.47
2022-10-28T23:03:53.170Z,15.37
2022-10-28T23:06:21.926Z,15.44
2022-10-28T23:08:49.043Z,15.40
2022-10-28T23:11:17.351Z,15.35
2022-10-28T23:13:43.811Z,15.33
2022-10-28T23:16:12.826Z,15.33
2022-10-28T23:18:39.805Z,15.32
2022-10-28T23:21:14.752Z,15.29
2022-10-28T23:23:42.631Z,15.38
2022-10-28T23:26:10.560Z,15.24
2022-10-28T23:28:37.049Z,15.30
2022-10-28T23:31:05.823Z,15.26
2022-10-28T23:33:33.796Z,15.25
2022-10-28T23:36:03.685Z,15.25
2022-10-28T23:38:31.150Z,15.28
2022-10-28T23:41:03.022Z,15.27
2022-10-28T23:43:30.504Z,15.27
2022-10-28T23:45:57.908Z,15.25
2022-10-28T23:48:25.039Z,15.18
2022-10-28T23:50:52.024Z,15.21
2022-10-28T23:53:19.240Z,15.23
2022-10-28T23:55:47.645Z,15.23
2022-10-28T23:58:15.987Z,15.22
